createdAt,value
2018-09-15T00:02:06.352Z,18.70
2018-09-15T00:04:35.271Z,18.70
2018-09-15T00:07:04.517Z,18.80
2018-09-15T00:09:33.532Z,18.80
2018-09-15T00:12:02.525Z,18.70
2018-09-15T00:14:31.523Z,18.60
2018-09-15T00:17:00.501Z,18.70
2018-09-15T00:19:29.702Z,18.70
2018-09-15T00:21:58.901Z,18.80
2018-09-15T00:24:28.129Z,18.70
2018-09-15T00:26:57.318Z,18.70
2018-09-15T00:29:26.488Z,18.70
2018-09-15T00:31:55.585Z,18.80
2018-09-15T00:34:24.672Z,18.80
2018-09-15T00:36:53.797Z,18.80
2018-09-15T00:39:22.953Z,18.80
2018-09-15T00:41:52.098Z,18.80
2018-09-15T00:44:21.169Z,18.80
2018-09-15T00:46:50.243Z,18.80
2018-09-15T00:49:19.367Z,18.80
2018-09-15T00:51:48.311Z,18.80
2018-09-15T00:54:17.433Z,18.60
2018-09-15T00:56:46.396Z,18.70
2018-09-15T00:59:15.396Z,18.60
2018-09-15T01:01:44.499Z,18.70
2018-09-15T01:04:13.496Z,18.60
2018-09-15T01:06:42.475Z,18.60
2018-09-15T01:09:11.460Z,18.60
2018-09-15T01:11:40.463Z,18.50
2018-09-15T01:14:09.609Z,18.50
2018-09-15T01:16:38.555Z,18.50
2018-09-15T01:19:07.651Z,18.40
2018-09-15T01:21:36.735Z,18.50
2018-09-15T01:24:05.732Z,18.30
2018-09-15T01:26:34.793Z,18.30
2018-09-15T01:29:03.843Z,18.30
2018-09-15T01:31:32.864Z,18.20
2018-09-15T01:34:01.823Z,18.20
2018-09-15T01:36:30.923Z,18.20
2018-09-15T01:39:00.012Z,18.20
2018-09-15T01:41:29.027Z,18.20
2018-09-15T01:43:57.980Z,18.20
2018-09-15T01:46:27.085Z,18.10
2018-09-15T01:48:56.068Z,18.00
2018-09-15T01:51:25.220Z,18.00
2018-09-15T01:53:54.272Z,18.00
2018-09-15T01:56:23.360Z,18.10
2018-09-15T01:58:52.381Z,18.10
2018-09-15T02:01:21.344Z,18.10
2018-09-15T02:03:50.364Z,18.10
2018-09-15T02:06:19.335Z,18.10
2018-09-15T02:08:48.324Z,18.10
2018-09-15T02:11:17.414Z,18.10
2018-09-15T02:13:46.516Z,18.10
2018-09-15T02:16:15.635Z,18.10
2018-09-15T02:18:44.706Z,18.00
2018-09-15T02:21:13.801Z,18.00
2018-09-15T02:23:42.883Z,18.00
2018-09-15T02:26:11.982Z,18.00
2018-09-15T02:28:40.990Z,18.00
2018-09-15T02:31:10.081Z,18.10
2018-09-15T02:33:39.059Z,18.10
2018-09-15T02:36:08.154Z,18.10
2018-09-15T02:38:37.081Z,18.10
2018-09-15T02:41:06.151Z,18.00
2018-09-15T02:43:35.120Z,18.00
2018-09-15T02:46:04.159Z,18.10
2018-09-15T02:48:33.141Z,18.10
2018-09-15T02:51:02.116Z,18.10
2018-09-15T02:53:31.217Z,18.10
2018-09-15T02:56:00.203Z,18.10
2018-09-15T02:58:29.393Z,18.00
2018-09-15T03:00:58.497Z,18.00
2018-09-15T03:03:27.575Z,18.10
2018-09-15T03:05:56.703Z,18.00
2018-09-15T03:08:25.881Z,18.10
2018-09-15T03:10:54.913Z,18.10
2018-09-15T03:13:24.186Z,18.00
2018-09-15T03:15:53.169Z,18.00
2018-09-15T03:18:22.288Z,18.10
2018-09-15T03:20:51.343Z,18.10
2018-09-15T03:23:20.458Z,18.10
2018-09-15T03:25:49.540Z,18.10
2018-09-15T03:28:18.531Z,18.10
2018-09-15T03:30:47.652Z,18.10
2018-09-15T03:33:16.734Z,18.10
2018-09-15T03:35:45.825Z,18.00
2018-09-15T03:38:14.921Z,18.00
2018-09-15T03:40:43.927Z,18.00
2018-09-15T03:43:13.071Z,18.00
2018-09-15T03:45:42.121Z,18.00
2018-09-15T03:48:11.204Z,18.00
2018-09-15T03:50:40.308Z,18.00
2018-09-15T03:53:09.381Z,17.90
2018-09-15T03:55:38.438Z,18.00
2018-09-15T03:58:07.668Z,18.00
2018-09-15T04:00:36.780Z,18.00
2018-09-15T04:03:05.885Z,18.00
2018-09-15T04:05:34.939Z,18.00
2018-09-15T04:08:04.061Z,17.90
2018-09-15T04:10:33.170Z,17.90
2018-09-15T04:13:02.366Z,17.90
2018-09-15T04:15:31.454Z,18.00
2018-09-15T04:18:00.408Z,17.90
2018-09-15T04:20:29.564Z,17.90
2018-09-15T04:22:58.732Z,17.90
2018-09-15T04:25:27.846Z,17.80
2018-09-15T04:27:57.037Z,17.60
2018-09-15T04:30:26.120Z,17.60
2018-09-15T04:32:55.236Z,17.60
2018-09-15T04:35:24.405Z,17.60
2018-09-15T04:37:53.488Z,17.60
2018-09-15T04:40:22.618Z,17.60
2018-09-15T04:42:51.521Z,17.60
2018-09-15T04:45:20.644Z,17.70
2018-09-15T04:47:50.107Z,17.70
2018-09-15T04:50:19.276Z,17.60
2018-09-15T04:52:48.530Z,17.60
2018-09-15T04:55:17.591Z,17.70
2018-09-15T04:57:46.589Z,17.70
2018-09-15T05:00:15.660Z,17.70
2018-09-15T05:02:44.747Z,17.70
2018-09-15T05:05:13.758Z,17.70
2018-09-15T05:07:42.821Z,17.70
2018-09-15T05:10:11.980Z,17.70
2018-09-15T05:12:41.047Z,17.70
2018-09-15T05:15:10.128Z,17.70
2018-09-15T05:17:39.123Z,17.70
2018-09-15T05:20:08.180Z,17.70
2018-09-15T05:22:37.266Z,17.70
2018-09-15T05:25:06.579Z,17.60
2018-09-15T05:27:35.607Z,17.70
2018-09-15T05:30:05.048Z,17.70
2018-09-15T05:32:34.199Z,17.70
2018-09-15T05:35:03.322Z,17.70
2018-09-15T05:37:32.388Z,17.70
2018-09-15T05:40:01.617Z,17.60
2018-09-15T05:42:30.688Z,17.60
2018-09-15T05:44:59.767Z,17.60
2018-09-15T05:47:28.904Z,17.70
2018-09-15T05:49:57.968Z,17.60
2018-09-15T05:52:27.068Z,17.60
2018-09-15T05:54:56.058Z,17.60
2018-09-15T05:57:25.083Z,17.60
2018-09-15T05:59:54.163Z,17.60
2018-09-15T06:02:23.360Z,17.60
2018-09-15T06:04:52.439Z,17.50
2018-09-15T06:07:21.516Z,17.50
2018-09-15T06:09:50.617Z,17.40
2018-09-15T06:12:19.647Z,17.30
2018-09-15T06:14:48.620Z,17.40
2018-09-15T06:17:17.572Z,17.50
2018-09-15T06:19:46.675Z,17.50
2018-09-15T06:22:15.791Z,17.50
2018-09-15T06:24:44.898Z,17.50
2018-09-15T06:27:13.980Z,17.50
2018-09-15T06:29:43.121Z,17.50
2018-09-15T06:32:12.227Z,17.60
2018-09-15T06:34:41.283Z,17.60
2018-09-15T06:37:10.376Z,17.60
2018-09-15T06:39:39.460Z,17.50
2018-09-15T06:42:08.741Z,17.50
2018-09-15T06:44:37.856Z,17.40
2018-09-15T06:47:07.020Z,17.40
2018-09-15T06:49:36.067Z,17.50
2018-09-15T06:52:05.118Z,17.50
2018-09-15T06:54:34.139Z,17.50
2018-09-15T06:57:03.103Z,17.40
2018-09-15T06:59:32.288Z,17.40
2018-09-15T07:02:01.538Z,17.50
2018-09-15T07:04:30.542Z,17.50
2018-09-15T07:06:59.711Z,17.40
2018-09-15T07:09:28.886Z,17.50
2018-09-15T07:11:57.984Z,17.60
2018-09-15T07:14:27.108Z,17.70
2018-09-15T07:16:56.073Z,17.70
2018-09-15T07:19:25.183Z,17.70
2018-09-15T07:21:54.369Z,17.70
2018-09-15T07:24:23.469Z,17.80
2018-09-15T07:26:52.562Z,17.80
2018-09-15T07:29:21.652Z,17.80
2018-09-15T07:31:50.802Z,17.80
2018-09-15T07:34:19.855Z,17.80
2018-09-15T07:36:49.055Z,17.80
2018-09-15T07:39:18.180Z,17.80
2018-09-15T07:41:47.297Z,17.90
2018-09-15T07:44:16.551Z,17.90
2018-09-15T07:46:45.625Z,17.90
2018-09-15T07:49:14.605Z,18.00
2018-09-15T07:51:43.915Z,18.00
2018-09-15T07:54:13.125Z,18.00
2018-09-15T07:56:42.305Z,18.00
2018-09-15T07:59:11.506Z,18.00
2018-09-15T08:01:40.697Z,18.10
2018-09-15T08:04:09.784Z,18.20
2018-09-15T08:06:38.869Z,18.20
2018-09-15T08:09:08.287Z,18.30
2018-09-15T08:11:37.617Z,18.30
2018-09-15T08:14:06.882Z,18.40
2018-09-15T08:16:35.893Z,18.40
2018-09-15T08:19:04.985Z,18.40
2018-09-15T08:21:34.018Z,18.40
2018-09-15T08:24:03.075Z,18.40
2018-09-15T08:26:32.081Z,18.50
2018-09-15T08:29:01.064Z,18.50
2018-09-15T08:31:30.156Z,18.50
2018-09-15T08:33:59.151Z,18.50
2018-09-15T08:36:28.247Z,18.60
2018-09-15T08:38:57.357Z,18.60
2018-09-15T08:41:26.576Z,18.70
2018-09-15T08:43:55.729Z,18.70
2018-09-15T08:46:24.775Z,18.80
2018-09-15T08:48:53.812Z,18.80
2018-09-15T08:51:22.901Z,18.80
2018-09-15T08:53:51.910Z,18.90
2018-09-15T08:56:21.098Z,18.90
2018-09-15T08:58:50.211Z,18.90
2018-09-15T09:01:19.284Z,19.00
2018-09-15T09:03:48.495Z,19.00
2018-09-15T09:06:17.624Z,19.10
2018-09-15T09:08:46.685Z,19.10
2018-09-15T09:11:15.806Z,19.10
2018-09-15T09:13:44.851Z,19.20
2018-09-15T09:16:13.949Z,19.20
2018-09-15T09:18:43.049Z,19.30
2018-09-15T09:21:12.140Z,19.40
2018-09-15T09:23:41.176Z,19.40
2018-09-15T09:26:10.361Z,19.40
2018-09-15T09:28:39.435Z,19.50
2018-09-15T09:31:08.936Z,19.50
2018-09-15T09:33:38.025Z,19.60
2018-09-15T09:36:07.264Z,19.60
2018-09-15T09:38:36.429Z,19.70
2018-09-15T09:41:05.610Z,19.80
2018-09-15T09:43:34.587Z,19.90
2018-09-15T09:46:03.709Z,19.90
2018-09-15T09:48:32.915Z,20.00
2018-09-15T09:51:01.998Z,20.00
2018-09-15T09:53:31.183Z,20.10
2018-09-15T09:56:00.288Z,20.10
2018-09-15T09:58:29.384Z,20.10
2018-09-15T10:00:59.187Z,20.20
2018-09-15T10:03:28.499Z,20.20
2018-09-15T10:05:57.683Z,20.30
2018-09-15T10:08:26.779Z,20.30
2018-09-15T10:10:55.980Z,20.30
2018-09-15T10:13:25.101Z,20.30
2018-09-15T10:15:54.231Z,20.30
2018-09-15T10:18:23.387Z,20.30
2018-09-15T10:20:52.476Z,20.40
2018-09-15T10:23:21.555Z,20.40
2018-09-15T10:25:50.688Z,20.40
2018-09-15T10:28:19.757Z,20.40
2018-09-15T10:30:48.944Z,20.50
2018-09-15T10:33:18.044Z,20.50
2018-09-15T10:35:47.140Z,20.50
2018-09-15T10:38:16.274Z,20.50
2018-09-15T10:40:45.436Z,20.50
2018-09-15T10:43:14.512Z,20.50
2018-09-15T10:45:44.039Z,20.60
2018-09-15T10:48:13.140Z,20.60
2018-09-15T10:50:42.333Z,20.60
2018-09-15T10:53:11.401Z,20.60
2018-09-15T10:55:40.982Z,20.60
2018-09-15T10:58:10.000Z,20.60
2018-09-15T11:00:39.137Z,20.70
2018-09-15T11:03:08.245Z,20.70
2018-09-15T11:05:37.399Z,20.80
2018-09-15T11:08:11.876Z,20.80
2018-09-15T11:10:42.016Z,20.80
2018-09-15T11:13:13.731Z,20.90
2018-09-15T11:15:44.185Z,20.90
2018-09-15T11:18:15.470Z,20.90
2018-09-15T11:20:45.836Z,21.00
2018-09-15T11:23:16.917Z,21.10
2018-09-15T11:25:45.836Z,21.10
2018-09-15T11:28:14.824Z,21.20
2018-09-15T11:30:44.023Z,21.20
2018-09-15T11:33:13.126Z,21.30
2018-09-15T11:35:42.316Z,21.30
2018-09-15T11:38:12.198Z,21.40
2018-09-15T11:40:41.253Z,21.40
2018-09-15T11:43:11.218Z,21.50
2018-09-15T11:45:40.222Z,21.50
2018-09-15T11:48:09.447Z,21.60
2018-09-15T11:50:38.592Z,21.70
2018-09-15T11:53:07.573Z,21.80
2018-09-15T11:55:36.762Z,21.90
2018-09-15T11:58:05.797Z,22.10
2018-09-15T12:00:37.107Z,22.20
2018-09-15T12:03:06.137Z,22.30
2018-09-15T12:05:35.106Z,22.50
2018-09-15T12:08:04.149Z,22.60
2018-09-15T12:10:33.161Z,22.70
2018-09-15T12:13:02.325Z,22.90
2018-09-15T12:15:31.530Z,23.00
2018-09-15T12:18:00.721Z,23.10
2018-09-15T12:20:29.912Z,23.20
2018-09-15T12:22:59.113Z,23.20
2018-09-15T12:25:28.218Z,23.20
2018-09-15T12:27:57.194Z,23.30
2018-09-15T12:30:26.393Z,23.40
2018-09-15T12:32:55.471Z,23.50
2018-09-15T12:35:24.457Z,23.60
2018-09-15T12:37:53.605Z,23.70
2018-09-15T12:40:23.591Z,23.80
2018-09-15T12:42:53.000Z,23.90
2018-09-15T12:45:22.138Z,24.00
2018-09-15T12:47:51.155Z,24.20
2018-09-15T12:50:20.159Z,24.20
2018-09-15T12:52:49.193Z,24.30
2018-09-15T12:55:18.138Z,24.30
2018-09-15T12:57:47.382Z,24.30
2018-09-15T13:00:16.428Z,24.40
2018-09-15T13:02:45.454Z,24.50
2018-09-15T13:05:14.494Z,24.60
2018-09-15T13:07:43.508Z,24.70
2018-09-15T13:10:12.606Z,24.80
2018-09-15T13:12:41.717Z,25.00
2018-09-15T13:15:10.806Z,25.10
2018-09-15T13:17:39.785Z,25.10
2018-09-15T13:20:08.985Z,25.10
2018-09-15T13:22:38.080Z,25.10
2018-09-15T13:25:07.377Z,25.20
2018-09-15T13:27:36.487Z,25.30
2018-09-15T13:30:05.915Z,25.40
2018-09-15T13:32:34.438Z,25.50
2018-09-15T13:35:03.463Z,25.60
2018-09-15T13:37:31.573Z,25.60
2018-09-15T13:39:59.889Z,25.70
2018-09-15T13:42:29.013Z,25.70
2018-09-15T13:44:58.085Z,25.70
2018-09-15T13:47:26.193Z,25.60
2018-09-15T13:49:54.405Z,25.60
2018-09-15T13:52:22.580Z,25.50
2018-09-15T13:54:50.764Z,25.50
2018-09-15T13:57:18.811Z,25.50
2018-09-15T13:59:47.004Z,25.50
2018-09-15T14:02:15.030Z,25.60
2018-09-15T14:04:43.315Z,25.60
2018-09-15T14:07:11.519Z,25.60
2018-09-15T14:09:43.477Z,25.60
2018-09-15T14:12:07.860Z,25.60
2018-09-15T14:14:35.939Z,25.70
2018-09-15T14:17:03.988Z,25.70
2018-09-15T14:19:32.047Z,25.70
2018-09-15T14:22:00.056Z,25.60
2018-09-15T14:24:28.215Z,25.50
2018-09-15T14:26:56.394Z,25.50
2018-09-15T14:29:24.439Z,25.50
2018-09-15T14:31:52.630Z,25.40
2018-09-15T14:34:20.805Z,25.40
2018-09-15T14:36:48.861Z,25.40
2018-09-15T14:39:17.049Z,25.30
2018-09-15T14:41:45.225Z,25.30
2018-09-15T14:44:13.449Z,25.40
2018-09-15T14:46:41.469Z,25.40
2018-09-15T14:49:09.540Z,25.50
2018-09-15T14:51:37.708Z,25.60
2018-09-15T14:54:05.779Z,25.70
2018-09-15T14:56:33.879Z,25.80
2018-09-15T14:59:02.171Z,25.80
2018-09-15T15:01:30.312Z,25.90
2018-09-15T15:03:58.347Z,25.90
2018-09-15T15:06:26.520Z,26.00
2018-09-15T15:08:54.618Z,26.10
2018-09-15T15:11:22.788Z,26.20
2018-09-15T15:13:50.935Z,26.20
2018-09-15T15:16:19.012Z,26.20
2018-09-15T15:18:47.103Z,26.30
2018-09-15T15:21:15.177Z,26.30
2018-09-15T15:23:43.263Z,26.30
2018-09-15T15:26:11.364Z,26.30
2018-09-15T15:28:39.487Z,26.40
2018-09-15T15:31:07.563Z,26.40
2018-09-15T15:33:35.678Z,26.40
2018-09-15T15:36:03.906Z,26.50
2018-09-15T15:38:32.236Z,26.50
2018-09-15T15:41:00.420Z,26.50
2018-09-15T15:43:28.677Z,26.50
2018-09-15T15:45:56.919Z,26.50
2018-09-15T15:48:24.991Z,26.50
2018-09-15T15:50:53.152Z,26.50
2018-09-15T15:53:21.321Z,26.50
2018-09-15T15:55:49.561Z,26.50
2018-09-15T15:58:17.853Z,26.40
2018-09-15T16:00:46.151Z,26.40
2018-09-15T16:03:14.191Z,26.40
2018-09-15T16:05:42.303Z,26.30
2018-09-15T16:08:11.415Z,26.30
2018-09-15T16:10:39.460Z,26.20
2018-09-15T16:13:08.640Z,26.20
2018-09-15T16:15:36.928Z,26.10
2018-09-15T16:18:06.082Z,26.10
2018-09-15T16:20:34.204Z,26.00
2018-09-15T16:23:02.252Z,25.90
2018-09-15T16:25:30.365Z,25.80
2018-09-15T16:27:58.620Z,25.80
2018-09-15T16:30:26.815Z,25.70
2018-09-15T16:32:55.019Z,25.60
2018-09-15T16:35:23.241Z,25.50
2018-09-15T16:37:51.408Z,25.40
2018-09-15T16:40:19.550Z,25.40
2018-09-15T16:42:47.759Z,25.30
2018-09-15T16:45:15.927Z,25.20
2018-09-15T16:47:43.998Z,25.20
2018-09-15T16:50:12.176Z,25.00
2018-09-15T16:52:40.451Z,25.00
2018-09-15T16:55:08.765Z,24.90
2018-09-15T16:57:36.975Z,24.90
2018-09-15T17:00:05.376Z,24.80
2018-09-15T17:02:33.447Z,24.80
2018-09-15T17:05:01.505Z,24.80
2018-09-15T17:07:29.804Z,24.70
2018-09-15T17:09:57.838Z,24.70
2018-09-15T17:12:25.995Z,24.60
2018-09-15T17:14:54.211Z,24.60
2018-09-15T17:17:22.252Z,24.60
2018-09-15T17:19:50.414Z,24.50
2018-09-15T17:22:18.678Z,24.50
2018-09-15T17:24:46.771Z,24.50
2018-09-15T17:27:14.878Z,24.40
2018-09-15T17:29:42.919Z,24.40
2018-09-15T17:32:11.116Z,24.40
2018-09-15T17:34:39.289Z,24.20
2018-09-15T17:37:07.447Z,24.20
2018-09-15T17:39:35.518Z,24.20
2018-09-15T17:42:03.604Z,24.10
2018-09-15T17:44:32.049Z,24.10
2018-09-15T17:47:00.415Z,24.00
2018-09-15T17:49:28.506Z,23.90
2018-09-15T17:51:56.604Z,23.80
2018-09-15T17:54:24.675Z,23.80
2018-09-15T17:56:52.782Z,23.80
2018-09-15T17:59:20.894Z,23.70
2018-09-15T18:01:48.989Z,23.70
2018-09-15T18:04:17.164Z,23.50
2018-09-15T18:06:45.187Z,23.20
2018-09-15T18:09:13.304Z,23.20
2018-09-15T18:11:41.375Z,23.20
2018-09-15T18:14:09.548Z,23.10
2018-09-15T18:16:37.622Z,23.00
2018-09-15T18:19:05.737Z,22.90
2018-09-15T18:21:33.970Z,22.80
2018-09-15T18:24:02.144Z,22.50
2018-09-15T18:26:30.204Z,22.70
2018-09-15T18:28:58.279Z,22.80
2018-09-15T18:31:26.336Z,22.70
2018-09-15T18:33:54.446Z,22.70
2018-09-15T18:36:22.753Z,22.50
2018-09-15T18:38:51.684Z,22.40
2018-09-15T18:41:19.974Z,22.50
2018-09-15T18:43:48.018Z,22.70
2018-09-15T18:46:16.118Z,22.70
2018-09-15T18:48:44.127Z,22.70
2018-09-15T18:51:12.349Z,22.70
2018-09-15T18:53:40.726Z,22.80
2018-09-15T18:56:09.209Z,22.70
2018-09-15T18:58:37.487Z,22.80
2018-09-15T19:01:05.512Z,22.70
2018-09-15T19:03:33.895Z,22.60
2018-09-15T19:06:02.173Z,22.50
2018-09-15T19:08:30.257Z,22.60
2018-09-15T19:10:58.451Z,22.60
2018-09-15T19:13:26.627Z,22.30
2018-09-15T19:15:54.707Z,22.10
2018-09-15T19:18:22.843Z,22.10
2018-09-15T19:20:51.045Z,22.00
2018-09-15T19:23:19.319Z,22.10
2018-09-15T19:25:47.386Z,22.10
2018-09-15T19:28:15.536Z,22.20
2018-09-15T19:30:43.631Z,22.20
2018-09-15T19:33:11.679Z,22.20
2018-09-15T19:35:39.776Z,22.10
2018-09-15T19:38:08.035Z,22.10
2018-09-15T19:40:36.123Z,22.00
2018-09-15T19:43:04.202Z,22.10
2018-09-15T19:45:32.479Z,22.00
2018-09-15T19:48:00.613Z,22.00
2018-09-15T19:50:28.759Z,22.00
2018-09-15T19:52:56.865Z,22.00
2018-09-15T19:55:25.058Z,21.90
2018-09-15T19:57:53.233Z,21.90
2018-09-15T20:00:22.381Z,21.80
2018-09-15T20:02:51.519Z,21.90
2018-09-15T20:05:20.784Z,21.90
2018-09-15T20:07:49.981Z,21.80
2018-09-15T20:10:19.099Z,21.80
2018-09-15T20:12:48.207Z,21.70
2018-09-15T20:15:30.515Z,21.60
2018-09-15T20:17:58.994Z,21.40
2018-09-15T20:20:26.862Z,21.40
2018-09-15T20:22:56.506Z,21.40
2018-09-15T20:25:28.511Z,21.50
2018-09-15T20:27:57.882Z,21.50
2018-09-15T20:30:26.998Z,21.40
2018-09-15T20:32:56.191Z,21.40
2018-09-15T20:35:25.384Z,21.40
2018-09-15T20:37:54.464Z,21.50
2018-09-15T20:40:23.802Z,21.50
2018-09-15T20:42:53.144Z,21.50
2018-09-15T20:45:22.410Z,21.30
2018-09-15T20:47:51.448Z,21.20
2018-09-15T20:50:20.552Z,21.10
2018-09-15T20:52:49.545Z,21.10
2018-09-15T20:55:18.591Z,21.10
2018-09-15T20:57:47.666Z,21.20
2018-09-15T21:00:16.715Z,21.20
2018-09-15T21:02:45.935Z,21.20
2018-09-15T21:05:15.016Z,21.20
2018-09-15T21:07:44.104Z,21.20
2018-09-15T21:10:13.251Z,21.20
2018-09-15T21:12:42.304Z,21.20
2018-09-15T21:15:11.414Z,21.20
2018-09-15T21:17:40.472Z,21.10
2018-09-15T21:20:09.684Z,21.10
2018-09-15T21:22:38.802Z,21.20
2018-09-15T21:25:07.861Z,21.20
2018-09-15T21:27:36.937Z,21.10
2018-09-15T21:30:06.264Z,21.10
2018-09-15T21:32:35.364Z,21.10
2018-09-15T21:35:04.652Z,21.00
2018-09-15T21:37:33.799Z,21.10
2018-09-15T21:40:02.957Z,20.90
2018-09-15T21:42:31.873Z,21.00
2018-09-15T21:45:01.048Z,21.00
2018-09-15T21:47:30.162Z,20.90
2018-09-15T21:49:59.214Z,20.90
2018-09-15T21:52:28.420Z,20.80
2018-09-15T21:54:57.523Z,20.70
2018-09-15T21:57:26.716Z,20.50
2018-09-15T21:59:55.978Z,20.50
2018-09-15T22:02:25.204Z,20.60
2018-09-15T22:04:54.271Z,20.70
2018-09-15T22:07:23.404Z,20.70
2018-09-15T22:09:52.415Z,20.70
2018-09-15T22:12:21.424Z,20.60
2018-09-15T22:14:50.483Z,20.50
2018-09-15T22:17:19.472Z,20.50
2018-09-15T22:19:48.452Z,20.50
2018-09-15T22:22:17.700Z,20.60
2018-09-15T22:24:46.651Z,20.60
2018-09-15T22:27:15.751Z,20.60
2018-09-15T22:29:44.843Z,20.60
2018-09-15T22:32:13.926Z,20.60
2018-09-15T22:34:43.241Z,20.50
2018-09-15T22:37:12.361Z,20.50
2018-09-15T22:39:41.412Z,20.50
2018-09-15T22:42:10.537Z,20.50
2018-09-15T22:44:39.830Z,20.50
2018-09-15T22:47:09.020Z,20.40
2018-09-15T22:49:38.144Z,20.50
2018-09-15T22:52:07.213Z,20.40
2018-09-15T22:54:36.294Z,20.40
2018-09-15T22:57:05.484Z,20.30
2018-09-15T22:59:34.602Z,20.20
2018-09-15T23:02:03.704Z,20.20
2018-09-15T23:04:32.763Z,20.20
2018-09-15T23:07:01.895Z,20.10
2018-09-15T23:09:30.966Z,20.00
2018-09-15T23:12:00.104Z,20.00
2018-09-15T23:14:29.184Z,20.00
2018-09-15T23:16:58.257Z,19.70
2018-09-15T23:19:27.348Z,19.70
2018-09-15T23:21:56.444Z,19.70
2018-09-15T23:24:25.531Z,19.60
2018-09-15T23:26:54.660Z,19.60
2018-09-15T23:29:23.832Z,19.60
2018-09-15T23:31:52.940Z,19.60
2018-09-15T23:34:22.032Z,19.60
2018-09-15T23:36:51.993Z,19.70
2018-09-15T23:39:21.103Z,19.70
2018-09-15T23:41:50.143Z,19.80
2018-09-15T23:44:19.100Z,19.80
2018-09-15T23:46:48.019Z,19.80
2018-09-15T23:49:17.172Z,19.80
2018-09-15T23:51:46.323Z,19.70
2018-09-15T23:54:15.411Z,19.70
2018-09-15T23:56:44.492Z,19.60
2018-09-15T23:59:13.691Z,19.60
